<?xml version="1.0" encoding="UTF-8" standalone="no" ?>
<gpx xmlns="http://www.topografix.com/GPX/1/1" xmlns:xsi="http://www.w3.org/2001/XMLSchema-instance" xsi:schemaLocation="http://www.topografix.com/GPX/1/1 http://www.topografix.com/GPX/1/1/gpx.xsd" version="1.1" creator="VisuGPX - https://www.visugpx.com">
  <metadata>
    <name>Cassignas 8 km</name>
  </metadata>
  <trk>
    <name><![CDATA[2025 12 20 Cassignas 8 km Pierre]]></name>
    <extensions>
      <line xmlns="http://www.topografix.com/GPX/gpx_style/0/2">
        <color>0000FF</color>
        <width>4</width>
      </line>
    </extensions>
    <trkseg>
      <trkpt lat="44.29942" lon="0.78765">
        <ele>202.5</ele>
        <time>2025-12-20T13:06:36.737Z</time>
      </trkpt>
      <trkpt lat="44.2996" lon="0.78803">
        <ele>202.7</ele>
        <time>2025-12-20T13:07:02.737Z</time>
      </trkpt>
      <trkpt lat="44.2998" lon="0.78824">
        <ele>201.8</ele>
        <time>2025-12-20T13:07:26.737Z</time>
      </trkpt>
      <trkpt lat="44.30002" lon="0.78828">
        <ele>199.3</ele>
        <time>2025-12-20T13:07:53.737Z</time>
      </trkpt>
      <trkpt lat="44.30008" lon="0.78833">
        <ele>198.8</ele>
        <time>2025-12-20T13:08:01.737Z</time>
      </trkpt>
      <trkpt lat="44.30019" lon="0.78832">
        <ele>197.2</ele>
        <time>2025-12-20T13:08:21.737Z</time>
      </trkpt>
      <trkpt lat="44.30034" lon="0.7882">
        <ele>193.5</ele>
        <time>2025-12-20T13:08:39.737Z</time>
      </trkpt>
      <trkpt lat="44.30042" lon="0.78824">
        <ele>191.8</ele>
        <time>2025-12-20T13:08:47.737Z</time>
      </trkpt>
      <trkpt lat="44.30044" lon="0.78826">
        <ele>191.6</ele>
        <time>2025-12-20T13:08:49.737Z</time>
      </trkpt>
      <trkpt lat="44.3004" lon="0.78865">
        <ele>192.7</ele>
        <time>2025-12-20T13:09:21.737Z</time>
      </trkpt>
      <trkpt lat="44.30041" lon="0.78877">
        <ele>191.3</ele>
        <time>2025-12-20T13:09:29.737Z</time>
      </trkpt>
      <trkpt lat="44.30027" lon="0.78909">
        <ele>192.7</ele>
        <time>2025-12-20T13:09:57.737Z</time>
      </trkpt>
      <trkpt lat="44.3002" lon="0.78919">
        <ele>193.7</ele>
        <time>2025-12-20T13:10:09.737Z</time>
      </trkpt>
      <trkpt lat="44.30012" lon="0.7894">
        <ele>193.9</ele>
        <time>2025-12-20T13:10:27.737Z</time>
      </trkpt>
      <trkpt lat="44.30006" lon="0.78969">
        <ele>193</ele>
        <time>2025-12-20T13:10:43.737Z</time>
      </trkpt>
      <trkpt lat="44.30006" lon="0.79023">
        <ele>188.9</ele>
        <time>2025-12-20T13:11:17.737Z</time>
      </trkpt>
      <trkpt lat="44.30007" lon="0.79042">
        <ele>188.4</ele>
        <time>2025-12-20T13:11:27.737Z</time>
      </trkpt>
      <trkpt lat="44.30011" lon="0.79071">
        <ele>187.6</ele>
        <time>2025-12-20T13:11:47.737Z</time>
      </trkpt>
      <trkpt lat="44.30015" lon="0.79078">
        <ele>186.6</ele>
        <time>2025-12-20T13:12:03.737Z</time>
      </trkpt>
      <trkpt lat="44.30019" lon="0.791">
        <ele>186.4</ele>
        <time>2025-12-20T13:12:19.737Z</time>
      </trkpt>
      <trkpt lat="44.30029" lon="0.7912">
        <ele>185.7</ele>
        <time>2025-12-20T13:12:33.737Z</time>
      </trkpt>
      <trkpt lat="44.30043" lon="0.79154">
        <ele>184.7</ele>
        <time>2025-12-20T13:13:01.737Z</time>
      </trkpt>
      <trkpt lat="44.30048" lon="0.79162">
        <ele>184.4</ele>
        <time>2025-12-20T13:13:09.737Z</time>
      </trkpt>
      <trkpt lat="44.30052" lon="0.79159">
        <ele>183</ele>
        <time>2025-12-20T13:13:17.737Z</time>
      </trkpt>
      <trkpt lat="44.30104" lon="0.79083">
        <ele>172.9</ele>
        <time>2025-12-20T13:14:34.737Z</time>
      </trkpt>
      <trkpt lat="44.30115" lon="0.79061">
        <ele>170.9</ele>
        <time>2025-12-20T13:15:16.737Z</time>
      </trkpt>
      <trkpt lat="44.30134" lon="0.79032">
        <ele>168.6</ele>
        <time>2025-12-20T13:15:40.737Z</time>
      </trkpt>
      <trkpt lat="44.30143" lon="0.79011">
        <ele>167.1</ele>
        <time>2025-12-20T13:15:56.737Z</time>
      </trkpt>
      <trkpt lat="44.30194" lon="0.78931">
        <ele>160.1</ele>
        <time>2025-12-20T13:17:08.737Z</time>
      </trkpt>
      <trkpt lat="44.30208" lon="0.78913">
        <ele>159</ele>
        <time>2025-12-20T13:17:24.737Z</time>
      </trkpt>
      <trkpt lat="44.3025" lon="0.78875">
        <ele>155.9</ele>
        <time>2025-12-20T13:18:08.737Z</time>
      </trkpt>
      <trkpt lat="44.3026" lon="0.78861">
        <ele>155.1</ele>
        <time>2025-12-20T13:18:20.737Z</time>
      </trkpt>
      <trkpt lat="44.30322" lon="0.78804">
        <ele>153.4</ele>
        <time>2025-12-20T13:19:24.737Z</time>
      </trkpt>
      <trkpt lat="44.30327" lon="0.78802">
        <ele>153.3</ele>
        <time>2025-12-20T13:19:28.737Z</time>
      </trkpt>
      <trkpt lat="44.30354" lon="0.78798">
        <ele>155.1</ele>
        <time>2025-12-20T13:19:52.737Z</time>
      </trkpt>
      <trkpt lat="44.30376" lon="0.78792">
        <ele>158.3</ele>
        <time>2025-12-20T13:20:36.737Z</time>
      </trkpt>
      <trkpt lat="44.30392" lon="0.78783">
        <ele>159.8</ele>
        <time>2025-12-20T13:21:00.737Z</time>
      </trkpt>
      <trkpt lat="44.30407" lon="0.78779">
        <ele>162.8</ele>
        <time>2025-12-20T13:21:16.737Z</time>
      </trkpt>
      <trkpt lat="44.30423" lon="0.78771">
        <ele>164.1</ele>
        <time>2025-12-20T13:21:32.737Z</time>
      </trkpt>
      <trkpt lat="44.30442" lon="0.78766">
        <ele>165.6</ele>
        <time>2025-12-20T13:21:52.737Z</time>
      </trkpt>
      <trkpt lat="44.3045" lon="0.78768">
        <ele>166.1</ele>
        <time>2025-12-20T13:22:00.737Z</time>
      </trkpt>
      <trkpt lat="44.30478" lon="0.78769">
        <ele>165</ele>
        <time>2025-12-20T13:22:32.737Z</time>
      </trkpt>
      <trkpt lat="44.30484" lon="0.78773">
        <ele>165</ele>
        <time>2025-12-20T13:23:00.737Z</time>
      </trkpt>
      <trkpt lat="44.30498" lon="0.78775">
        <ele>163.8</ele>
        <time>2025-12-20T13:23:48.737Z</time>
      </trkpt>
      <trkpt lat="44.30539" lon="0.78787">
        <ele>160.2</ele>
        <time>2025-12-20T13:24:24.737Z</time>
      </trkpt>
      <trkpt lat="44.30543" lon="0.78786">
        <ele>159.8</ele>
        <time>2025-12-20T13:24:28.737Z</time>
      </trkpt>
      <trkpt lat="44.30548" lon="0.78775">
        <ele>159.7</ele>
        <time>2025-12-20T13:24:36.737Z</time>
      </trkpt>
      <trkpt lat="44.30555" lon="0.78751">
        <ele>159</ele>
        <time>2025-12-20T13:24:52.737Z</time>
      </trkpt>
      <trkpt lat="44.30585" lon="0.78707">
        <ele>157.9</ele>
        <time>2025-12-20T13:25:28.737Z</time>
      </trkpt>
      <trkpt lat="44.30593" lon="0.78704">
        <ele>157.8</ele>
        <time>2025-12-20T13:25:36.737Z</time>
      </trkpt>
      <trkpt lat="44.30607" lon="0.78703">
        <ele>158</ele>
        <time>2025-12-20T13:26:22.737Z</time>
      </trkpt>
      <trkpt lat="44.30623" lon="0.78697">
        <ele>156.2</ele>
        <time>2025-12-20T13:26:38.737Z</time>
      </trkpt>
      <trkpt lat="44.30639" lon="0.7868">
        <ele>153</ele>
        <time>2025-12-20T13:27:02.737Z</time>
      </trkpt>
      <trkpt lat="44.30646" lon="0.78662">
        <ele>151.8</ele>
        <time>2025-12-20T13:27:22.737Z</time>
      </trkpt>
      <trkpt lat="44.30647" lon="0.78653">
        <ele>151.6</ele>
        <time>2025-12-20T13:27:30.737Z</time>
      </trkpt>
      <trkpt lat="44.30644" lon="0.78608">
        <ele>148.5</ele>
        <time>2025-12-20T13:28:02.737Z</time>
      </trkpt>
      <trkpt lat="44.30633" lon="0.78511">
        <ele>138</ele>
        <time>2025-12-20T13:29:06.737Z</time>
      </trkpt>
      <trkpt lat="44.30621" lon="0.78435">
        <ele>130.1</ele>
        <time>2025-12-20T13:29:58.737Z</time>
      </trkpt>
      <trkpt lat="44.30615" lon="0.78417">
        <ele>129</ele>
        <time>2025-12-20T13:30:10.737Z</time>
      </trkpt>
      <trkpt lat="44.3058" lon="0.78382">
        <ele>130.2</ele>
        <time>2025-12-20T13:30:54.737Z</time>
      </trkpt>
      <trkpt lat="44.30577" lon="0.78381">
        <ele>130.3</ele>
        <time>2025-12-20T13:30:58.737Z</time>
      </trkpt>
      <trkpt lat="44.30547" lon="0.7835">
        <ele>133</ele>
        <time>2025-12-20T13:31:30.737Z</time>
      </trkpt>
      <trkpt lat="44.30539" lon="0.78346">
        <ele>134.2</ele>
        <time>2025-12-20T13:31:38.737Z</time>
      </trkpt>
      <trkpt lat="44.3053" lon="0.7835">
        <ele>135.1</ele>
        <time>2025-12-20T13:31:46.737Z</time>
      </trkpt>
      <trkpt lat="44.30511" lon="0.78377">
        <ele>135.7</ele>
        <time>2025-12-20T13:32:10.737Z</time>
      </trkpt>
      <trkpt lat="44.30503" lon="0.78382">
        <ele>136.2</ele>
        <time>2025-12-20T13:32:18.737Z</time>
      </trkpt>
      <trkpt lat="44.30496" lon="0.78383">
        <ele>136.8</ele>
        <time>2025-12-20T13:32:26.737Z</time>
      </trkpt>
      <trkpt lat="44.3049" lon="0.78394">
        <ele>136.4</ele>
        <time>2025-12-20T13:32:40.737Z</time>
      </trkpt>
      <trkpt lat="44.30477" lon="0.78402">
        <ele>136.2</ele>
        <time>2025-12-20T13:32:52.737Z</time>
      </trkpt>
      <trkpt lat="44.3045" lon="0.78416">
        <ele>136.6</ele>
        <time>2025-12-20T13:33:20.737Z</time>
      </trkpt>
      <trkpt lat="44.30428" lon="0.78432">
        <ele>135.7</ele>
        <time>2025-12-20T13:33:48.737Z</time>
      </trkpt>
      <trkpt lat="44.30421" lon="0.78434">
        <ele>135.9</ele>
        <time>2025-12-20T13:33:56.737Z</time>
      </trkpt>
      <trkpt lat="44.30404" lon="0.78446">
        <ele>135.8</ele>
        <time>2025-12-20T13:34:12.737Z</time>
      </trkpt>
      <trkpt lat="44.30384" lon="0.78455">
        <ele>136.2</ele>
        <time>2025-12-20T13:34:30.737Z</time>
      </trkpt>
      <trkpt lat="44.3038" lon="0.7846">
        <ele>136</ele>
        <time>2025-12-20T13:34:34.737Z</time>
      </trkpt>
      <trkpt lat="44.30366" lon="0.78467">
        <ele>136.3</ele>
        <time>2025-12-20T13:34:46.737Z</time>
      </trkpt>
      <trkpt lat="44.30349" lon="0.78479">
        <ele>136.7</ele>
        <time>2025-12-20T13:35:04.737Z</time>
      </trkpt>
      <trkpt lat="44.30338" lon="0.78483">
        <ele>137.3</ele>
        <time>2025-12-20T13:35:14.737Z</time>
      </trkpt>
      <trkpt lat="44.3031" lon="0.78493">
        <ele>137.4</ele>
        <time>2025-12-20T13:35:36.737Z</time>
      </trkpt>
      <trkpt lat="44.30296" lon="0.78495">
        <ele>137.3</ele>
        <time>2025-12-20T13:35:46.737Z</time>
      </trkpt>
      <trkpt lat="44.30287" lon="0.7849">
        <ele>137.5</ele>
        <time>2025-12-20T13:35:54.737Z</time>
      </trkpt>
      <trkpt lat="44.30279" lon="0.7848">
        <ele>137.7</ele>
        <time>2025-12-20T13:36:02.737Z</time>
      </trkpt>
      <trkpt lat="44.30271" lon="0.78477">
        <ele>137.9</ele>
        <time>2025-12-20T13:36:10.737Z</time>
      </trkpt>
      <trkpt lat="44.30251" lon="0.78464">
        <ele>138.6</ele>
        <time>2025-12-20T13:36:30.737Z</time>
      </trkpt>
      <trkpt lat="44.30216" lon="0.78425">
        <ele>141.1</ele>
        <time>2025-12-20T13:37:14.737Z</time>
      </trkpt>
      <trkpt lat="44.30202" lon="0.78402">
        <ele>141.9</ele>
        <time>2025-12-20T13:38:22.737Z</time>
      </trkpt>
      <trkpt lat="44.30202" lon="0.7839">
        <ele>142.5</ele>
        <time>2025-12-20T13:38:50.737Z</time>
      </trkpt>
      <trkpt lat="44.30201" lon="0.78384">
        <ele>143</ele>
        <time>2025-12-20T13:38:54.737Z</time>
      </trkpt>
      <trkpt lat="44.30195" lon="0.78376">
        <ele>143.4</ele>
        <time>2025-12-20T13:39:02.737Z</time>
      </trkpt>
      <trkpt lat="44.3018" lon="0.78366">
        <ele>144.6</ele>
        <time>2025-12-20T13:39:22.737Z</time>
      </trkpt>
      <trkpt lat="44.30172" lon="0.78363">
        <ele>144.8</ele>
        <time>2025-12-20T13:39:30.737Z</time>
      </trkpt>
      <trkpt lat="44.3013" lon="0.78348">
        <ele>146.9</ele>
        <time>2025-12-20T13:40:14.737Z</time>
      </trkpt>
      <trkpt lat="44.30105" lon="0.78353">
        <ele>146.5</ele>
        <time>2025-12-20T13:40:38.737Z</time>
      </trkpt>
      <trkpt lat="44.30076" lon="0.78364">
        <ele>147.1</ele>
        <time>2025-12-20T13:41:04.737Z</time>
      </trkpt>
      <trkpt lat="44.30065" lon="0.78365">
        <ele>147.4</ele>
        <time>2025-12-20T13:41:16.737Z</time>
      </trkpt>
      <trkpt lat="44.30031" lon="0.78376">
        <ele>148.7</ele>
        <time>2025-12-20T13:41:48.737Z</time>
      </trkpt>
      <trkpt lat="44.29993" lon="0.78382">
        <ele>152.2</ele>
        <time>2025-12-20T13:42:31.737Z</time>
      </trkpt>
      <trkpt lat="44.29973" lon="0.78386">
        <ele>154.4</ele>
        <time>2025-12-20T13:42:53.737Z</time>
      </trkpt>
      <trkpt lat="44.29905" lon="0.78408">
        <ele>157.4</ele>
        <time>2025-12-20T13:44:03.737Z</time>
      </trkpt>
      <trkpt lat="44.29898" lon="0.78419">
        <ele>156.3</ele>
        <time>2025-12-20T13:44:11.737Z</time>
      </trkpt>
      <trkpt lat="44.29876" lon="0.78434">
        <ele>157.4</ele>
        <time>2025-12-20T13:44:46.737Z</time>
      </trkpt>
      <trkpt lat="44.29855" lon="0.78445">
        <ele>157.4</ele>
        <time>2025-12-20T13:45:02.737Z</time>
      </trkpt>
      <trkpt lat="44.29828" lon="0.78451">
        <ele>158.9</ele>
        <time>2025-12-20T13:45:28.737Z</time>
      </trkpt>
      <trkpt lat="44.29816" lon="0.78452">
        <ele>159.8</ele>
        <time>2025-12-20T13:45:38.737Z</time>
      </trkpt>
      <trkpt lat="44.29816" lon="0.7845">
        <ele>159.8</ele>
        <time>2025-12-20T13:45:42.737Z</time>
      </trkpt>
      <trkpt lat="44.29794" lon="0.78448">
        <ele>161.2</ele>
        <time>2025-12-20T13:46:02.737Z</time>
      </trkpt>
      <trkpt lat="44.29787" lon="0.78447">
        <ele>161.5</ele>
        <time>2025-12-20T13:46:10.737Z</time>
      </trkpt>
      <trkpt lat="44.29771" lon="0.78444">
        <ele>162</ele>
        <time>2025-12-20T13:46:24.737Z</time>
      </trkpt>
      <trkpt lat="44.29754" lon="0.78444">
        <ele>162</ele>
        <time>2025-12-20T13:46:42.737Z</time>
      </trkpt>
      <trkpt lat="44.29733" lon="0.78437">
        <ele>163.8</ele>
        <time>2025-12-20T13:47:00.737Z</time>
      </trkpt>
      <trkpt lat="44.29725" lon="0.78433">
        <ele>164.3</ele>
        <time>2025-12-20T13:47:10.737Z</time>
      </trkpt>
      <trkpt lat="44.29708" lon="0.78424">
        <ele>165</ele>
        <time>2025-12-20T13:47:28.737Z</time>
      </trkpt>
      <trkpt lat="44.29695" lon="0.78418">
        <ele>165</ele>
        <time>2025-12-20T13:47:43.737Z</time>
      </trkpt>
      <trkpt lat="44.29691" lon="0.78418">
        <ele>165.1</ele>
        <time>2025-12-20T13:47:47.737Z</time>
      </trkpt>
      <trkpt lat="44.29685" lon="0.78415">
        <ele>165.2</ele>
        <time>2025-12-20T13:47:53.737Z</time>
      </trkpt>
      <trkpt lat="44.29675" lon="0.78415">
        <ele>165.1</ele>
        <time>2025-12-20T13:48:15.737Z</time>
      </trkpt>
      <trkpt lat="44.2966" lon="0.78432">
        <ele>166</ele>
        <time>2025-12-20T13:53:49.737Z</time>
      </trkpt>
      <trkpt lat="44.29647" lon="0.7844">
        <ele>166.1</ele>
        <time>2025-12-20T13:53:53.737Z</time>
      </trkpt>
      <trkpt lat="44.29636" lon="0.78453">
        <ele>166.9</ele>
        <time>2025-12-20T13:54:05.737Z</time>
      </trkpt>
      <trkpt lat="44.29608" lon="0.78489">
        <ele>170.4</ele>
        <time>2025-12-20T13:54:48.737Z</time>
      </trkpt>
      <trkpt lat="44.29578" lon="0.78529">
        <ele>173.7</ele>
        <time>2025-12-20T13:55:32.737Z</time>
      </trkpt>
      <trkpt lat="44.29553" lon="0.78559">
        <ele>174.3</ele>
        <time>2025-12-20T13:56:04.737Z</time>
      </trkpt>
      <trkpt lat="44.29532" lon="0.78576">
        <ele>175.5</ele>
        <time>2025-12-20T13:56:34.737Z</time>
      </trkpt>
      <trkpt lat="44.29527" lon="0.78583">
        <ele>176</ele>
        <time>2025-12-20T13:56:38.737Z</time>
      </trkpt>
      <trkpt lat="44.2952" lon="0.78589">
        <ele>177</ele>
        <time>2025-12-20T13:56:46.737Z</time>
      </trkpt>
      <trkpt lat="44.29519" lon="0.78593">
        <ele>177.5</ele>
        <time>2025-12-20T13:56:54.737Z</time>
      </trkpt>
      <trkpt lat="44.29521" lon="0.7861">
        <ele>178.4</ele>
        <time>2025-12-20T13:57:10.737Z</time>
      </trkpt>
      <trkpt lat="44.2952" lon="0.7862">
        <ele>179.4</ele>
        <time>2025-12-20T13:57:20.737Z</time>
      </trkpt>
      <trkpt lat="44.29524" lon="0.78634">
        <ele>179.7</ele>
        <time>2025-12-20T13:57:54.737Z</time>
      </trkpt>
      <trkpt lat="44.29522" lon="0.78664">
        <ele>182.6</ele>
        <time>2025-12-20T13:58:26.737Z</time>
      </trkpt>
      <trkpt lat="44.29517" lon="0.78676">
        <ele>184</ele>
        <time>2025-12-20T13:58:38.737Z</time>
      </trkpt>
      <trkpt lat="44.295" lon="0.78689">
        <ele>186</ele>
        <time>2025-12-20T13:58:58.737Z</time>
      </trkpt>
      <trkpt lat="44.29488" lon="0.78687">
        <ele>188</ele>
        <time>2025-12-20T13:59:13.737Z</time>
      </trkpt>
      <trkpt lat="44.29465" lon="0.78688">
        <ele>191.6</ele>
        <time>2025-12-20T13:59:41.737Z</time>
      </trkpt>
      <trkpt lat="44.29456" lon="0.78698">
        <ele>193</ele>
        <time>2025-12-20T14:00:13.737Z</time>
      </trkpt>
      <trkpt lat="44.29444" lon="0.78702">
        <ele>195</ele>
        <time>2025-12-20T14:02:57.737Z</time>
      </trkpt>
      <trkpt lat="44.29436" lon="0.78751">
        <ele>196.6</ele>
        <time>2025-12-20T14:03:33.737Z</time>
      </trkpt>
      <trkpt lat="44.29391" lon="0.78882">
        <ele>202.9</ele>
        <time>2025-12-20T14:05:09.737Z</time>
      </trkpt>
      <trkpt lat="44.29387" lon="0.78888">
        <ele>203.1</ele>
        <time>2025-12-20T14:05:25.737Z</time>
      </trkpt>
      <trkpt lat="44.29382" lon="0.7889">
        <ele>203.5</ele>
        <time>2025-12-20T14:05:33.737Z</time>
      </trkpt>
      <trkpt lat="44.29373" lon="0.78888">
        <ele>204.1</ele>
        <time>2025-12-20T14:05:41.737Z</time>
      </trkpt>
      <trkpt lat="44.29346" lon="0.78872">
        <ele>205.2</ele>
        <time>2025-12-20T14:06:09.737Z</time>
      </trkpt>
      <trkpt lat="44.29316" lon="0.78857">
        <ele>205.8</ele>
        <time>2025-12-20T14:06:43.737Z</time>
      </trkpt>
      <trkpt lat="44.2929" lon="0.78851">
        <ele>207.3</ele>
        <time>2025-12-20T14:07:07.737Z</time>
      </trkpt>
      <trkpt lat="44.29259" lon="0.78848">
        <ele>209.1</ele>
        <time>2025-12-20T14:07:35.737Z</time>
      </trkpt>
      <trkpt lat="44.29252" lon="0.78845">
        <ele>209.3</ele>
        <time>2025-12-20T14:07:51.737Z</time>
      </trkpt>
      <trkpt lat="44.2925" lon="0.78846">
        <ele>209.5</ele>
        <time>2025-12-20T14:07:55.737Z</time>
      </trkpt>
      <trkpt lat="44.29231" lon="0.78846">
        <ele>209.7</ele>
        <time>2025-12-20T14:08:15.737Z</time>
      </trkpt>
      <trkpt lat="44.29227" lon="0.78843">
        <ele>209.7</ele>
        <time>2025-12-20T14:08:19.737Z</time>
      </trkpt>
      <trkpt lat="44.29191" lon="0.78837">
        <ele>209.3</ele>
        <time>2025-12-20T14:08:51.737Z</time>
      </trkpt>
      <trkpt lat="44.29187" lon="0.78838">
        <ele>209.5</ele>
        <time>2025-12-20T14:08:55.737Z</time>
      </trkpt>
      <trkpt lat="44.29184" lon="0.78842">
        <ele>209.8</ele>
        <time>2025-12-20T14:08:59.737Z</time>
      </trkpt>
      <trkpt lat="44.29183" lon="0.78853">
        <ele>210.2</ele>
        <time>2025-12-20T14:09:07.737Z</time>
      </trkpt>
      <trkpt lat="44.29186" lon="0.78901">
        <ele>211.4</ele>
        <time>2025-12-20T14:09:37.737Z</time>
      </trkpt>
      <trkpt lat="44.29184" lon="0.78907">
        <ele>211.6</ele>
        <time>2025-12-20T14:09:41.737Z</time>
      </trkpt>
      <trkpt lat="44.29186" lon="0.78955">
        <ele>212.3</ele>
        <time>2025-12-20T14:10:11.737Z</time>
      </trkpt>
      <trkpt lat="44.29185" lon="0.78964">
        <ele>212.5</ele>
        <time>2025-12-20T14:10:17.737Z</time>
      </trkpt>
      <trkpt lat="44.29187" lon="0.79027">
        <ele>212.3</ele>
        <time>2025-12-20T14:10:57.737Z</time>
      </trkpt>
      <trkpt lat="44.29186" lon="0.79037">
        <ele>212</ele>
        <time>2025-12-20T14:11:03.737Z</time>
      </trkpt>
      <trkpt lat="44.29183" lon="0.79047">
        <ele>211.7</ele>
        <time>2025-12-20T14:11:09.737Z</time>
      </trkpt>
      <trkpt lat="44.29184" lon="0.79056">
        <ele>211.4</ele>
        <time>2025-12-20T14:11:15.737Z</time>
      </trkpt>
      <trkpt lat="44.29181" lon="0.79096">
        <ele>211.5</ele>
        <time>2025-12-20T14:11:39.737Z</time>
      </trkpt>
      <trkpt lat="44.29183" lon="0.79106">
        <ele>211.4</ele>
        <time>2025-12-20T14:11:45.737Z</time>
      </trkpt>
      <trkpt lat="44.29182" lon="0.79118">
        <ele>211.2</ele>
        <time>2025-12-20T14:11:53.737Z</time>
      </trkpt>
      <trkpt lat="44.29183" lon="0.79137">
        <ele>210.5</ele>
        <time>2025-12-20T14:12:05.737Z</time>
      </trkpt>
      <trkpt lat="44.29179" lon="0.79173">
        <ele>209.5</ele>
        <time>2025-12-20T14:12:29.737Z</time>
      </trkpt>
      <trkpt lat="44.29168" lon="0.79204">
        <ele>207.6</ele>
        <time>2025-12-20T14:12:49.737Z</time>
      </trkpt>
      <trkpt lat="44.29158" lon="0.79216">
        <ele>206.9</ele>
        <time>2025-12-20T14:13:01.737Z</time>
      </trkpt>
      <trkpt lat="44.29148" lon="0.79224">
        <ele>206.3</ele>
        <time>2025-12-20T14:13:33.737Z</time>
      </trkpt>
      <trkpt lat="44.29132" lon="0.7924">
        <ele>205.3</ele>
        <time>2025-12-20T14:13:53.737Z</time>
      </trkpt>
      <trkpt lat="44.291" lon="0.79263">
        <ele>204.2</ele>
        <time>2025-12-20T14:14:21.737Z</time>
      </trkpt>
      <trkpt lat="44.29085" lon="0.79277">
        <ele>203.9</ele>
        <time>2025-12-20T14:14:37.737Z</time>
      </trkpt>
      <trkpt lat="44.2906" lon="0.79312">
        <ele>203.9</ele>
        <time>2025-12-20T14:15:09.737Z</time>
      </trkpt>
      <trkpt lat="44.29056" lon="0.79324">
        <ele>203.6</ele>
        <time>2025-12-20T14:15:17.737Z</time>
      </trkpt>
      <trkpt lat="44.29054" lon="0.79353">
        <ele>201.7</ele>
        <time>2025-12-20T14:15:37.737Z</time>
      </trkpt>
      <trkpt lat="44.29058" lon="0.79363">
        <ele>200.4</ele>
        <time>2025-12-20T14:15:45.737Z</time>
      </trkpt>
      <trkpt lat="44.29061" lon="0.79377">
        <ele>197.7</ele>
        <time>2025-12-20T14:15:55.737Z</time>
      </trkpt>
      <trkpt lat="44.29058" lon="0.79402">
        <ele>193.7</ele>
        <time>2025-12-20T14:16:13.737Z</time>
      </trkpt>
      <trkpt lat="44.2906" lon="0.79407">
        <ele>192.3</ele>
        <time>2025-12-20T14:16:17.737Z</time>
      </trkpt>
      <trkpt lat="44.29046" lon="0.7943">
        <ele>189.3</ele>
        <time>2025-12-20T14:16:42.737Z</time>
      </trkpt>
      <trkpt lat="44.29038" lon="0.7944">
        <ele>188.2</ele>
        <time>2025-12-20T14:16:54.737Z</time>
      </trkpt>
      <trkpt lat="44.29016" lon="0.7945">
        <ele>190.4</ele>
        <time>2025-12-20T14:17:10.737Z</time>
      </trkpt>
      <trkpt lat="44.29007" lon="0.79451">
        <ele>192.3</ele>
        <time>2025-12-20T14:17:25.737Z</time>
      </trkpt>
      <trkpt lat="44.28994" lon="0.79463">
        <ele>192.5</ele>
        <time>2025-12-20T14:17:39.737Z</time>
      </trkpt>
      <trkpt lat="44.28973" lon="0.79487">
        <ele>192.4</ele>
        <time>2025-12-20T14:18:03.737Z</time>
      </trkpt>
      <trkpt lat="44.28968" lon="0.79501">
        <ele>191.2</ele>
        <time>2025-12-20T14:18:16.737Z</time>
      </trkpt>
      <trkpt lat="44.28966" lon="0.79512">
        <ele>190.5</ele>
        <time>2025-12-20T14:18:24.737Z</time>
      </trkpt>
      <trkpt lat="44.2897" lon="0.7952">
        <ele>189.7</ele>
        <time>2025-12-20T14:18:30.737Z</time>
      </trkpt>
      <trkpt lat="44.2897" lon="0.79526">
        <ele>189.3</ele>
        <time>2025-12-20T14:18:34.737Z</time>
      </trkpt>
      <trkpt lat="44.28974" lon="0.79541">
        <ele>188.6</ele>
        <time>2025-12-20T14:18:48.737Z</time>
      </trkpt>
      <trkpt lat="44.28974" lon="0.79555">
        <ele>188.7</ele>
        <time>2025-12-20T14:18:58.737Z</time>
      </trkpt>
      <trkpt lat="44.28971" lon="0.79558">
        <ele>189.3</ele>
        <time>2025-12-20T14:19:00.737Z</time>
      </trkpt>
      <trkpt lat="44.28956" lon="0.79595">
        <ele>194.3</ele>
        <time>2025-12-20T14:19:36.737Z</time>
      </trkpt>
      <trkpt lat="44.2894" lon="0.79639">
        <ele>199.2</ele>
        <time>2025-12-20T14:20:18.737Z</time>
      </trkpt>
      <trkpt lat="44.28934" lon="0.7967">
        <ele>200.9</ele>
        <time>2025-12-20T14:20:42.737Z</time>
      </trkpt>
      <trkpt lat="44.28904" lon="0.79717">
        <ele>204.1</ele>
        <time>2025-12-20T14:21:30.737Z</time>
      </trkpt>
      <trkpt lat="44.28889" lon="0.79736">
        <ele>205.5</ele>
        <time>2025-12-20T14:21:52.737Z</time>
      </trkpt>
      <trkpt lat="44.28888" lon="0.79742">
        <ele>205.6</ele>
        <time>2025-12-20T14:21:56.737Z</time>
      </trkpt>
      <trkpt lat="44.2888" lon="0.79758">
        <ele>205.5</ele>
        <time>2025-12-20T14:22:12.737Z</time>
      </trkpt>
      <trkpt lat="44.28874" lon="0.79767">
        <ele>205.6</ele>
        <time>2025-12-20T14:22:20.737Z</time>
      </trkpt>
      <trkpt lat="44.28873" lon="0.79771">
        <ele>205.7</ele>
        <time>2025-12-20T14:22:24.737Z</time>
      </trkpt>
      <trkpt lat="44.28866" lon="0.79785">
        <ele>206.2</ele>
        <time>2025-12-20T14:22:31.737Z</time>
      </trkpt>
      <trkpt lat="44.28878" lon="0.79809">
        <ele>206.3</ele>
        <time>2025-12-20T14:23:19.737Z</time>
      </trkpt>
      <trkpt lat="44.28898" lon="0.79836">
        <ele>204</ele>
        <time>2025-12-20T14:23:49.737Z</time>
      </trkpt>
      <trkpt lat="44.28905" lon="0.79852">
        <ele>203</ele>
        <time>2025-12-20T14:24:01.737Z</time>
      </trkpt>
      <trkpt lat="44.28913" lon="0.79862">
        <ele>202.3</ele>
        <time>2025-12-20T14:24:09.737Z</time>
      </trkpt>
      <trkpt lat="44.28917" lon="0.79871">
        <ele>202</ele>
        <time>2025-12-20T14:24:17.737Z</time>
      </trkpt>
      <trkpt lat="44.28932" lon="0.79893">
        <ele>201.7</ele>
        <time>2025-12-20T14:24:37.737Z</time>
      </trkpt>
      <trkpt lat="44.28962" lon="0.79916">
        <ele>204.8</ele>
        <time>2025-12-20T14:25:09.737Z</time>
      </trkpt>
      <trkpt lat="44.28995" lon="0.79936">
        <ele>208.3</ele>
        <time>2025-12-20T14:25:41.737Z</time>
      </trkpt>
      <trkpt lat="44.29069" lon="0.79988">
        <ele>212</ele>
        <time>2025-12-20T14:27:49.737Z</time>
      </trkpt>
      <trkpt lat="44.291" lon="0.80001">
        <ele>212.4</ele>
        <time>2025-12-20T14:29:33.737Z</time>
      </trkpt>
      <trkpt lat="44.29155" lon="0.80042">
        <ele>211.7</ele>
        <time>2025-12-20T14:30:29.737Z</time>
      </trkpt>
      <trkpt lat="44.29182" lon="0.80064">
        <ele>211.5</ele>
        <time>2025-12-20T14:30:53.737Z</time>
      </trkpt>
      <trkpt lat="44.29252" lon="0.80146">
        <ele>205.9</ele>
        <time>2025-12-20T14:32:09.737Z</time>
      </trkpt>
      <trkpt lat="44.2928" lon="0.80181">
        <ele>204.9</ele>
        <time>2025-12-20T14:32:41.737Z</time>
      </trkpt>
      <trkpt lat="44.29323" lon="0.80228">
        <ele>202.6</ele>
        <time>2025-12-20T14:33:29.737Z</time>
      </trkpt>
      <trkpt lat="44.29353" lon="0.80258">
        <ele>199.3</ele>
        <time>2025-12-20T14:34:05.737Z</time>
      </trkpt>
      <trkpt lat="44.29353" lon="0.80268">
        <ele>198.9</ele>
        <time>2025-12-20T14:34:15.737Z</time>
      </trkpt>
      <trkpt lat="44.2935" lon="0.80273">
        <ele>199</ele>
        <time>2025-12-20T14:34:23.737Z</time>
      </trkpt>
      <trkpt lat="44.29346" lon="0.80286">
        <ele>198.7</ele>
        <time>2025-12-20T14:34:43.737Z</time>
      </trkpt>
      <trkpt lat="44.29343" lon="0.80289">
        <ele>198.7</ele>
        <time>2025-12-20T14:34:47.737Z</time>
      </trkpt>
      <trkpt lat="44.2934" lon="0.80315">
        <ele>198.3</ele>
        <time>2025-12-20T14:35:11.737Z</time>
      </trkpt>
      <trkpt lat="44.29343" lon="0.80326">
        <ele>198</ele>
        <time>2025-12-20T14:35:21.737Z</time>
      </trkpt>
      <trkpt lat="44.29351" lon="0.80333">
        <ele>197.1</ele>
        <time>2025-12-20T14:35:37.737Z</time>
      </trkpt>
      <trkpt lat="44.29357" lon="0.80336">
        <ele>196.5</ele>
        <time>2025-12-20T14:36:01.737Z</time>
      </trkpt>
      <trkpt lat="44.29391" lon="0.8033">
        <ele>190.4</ele>
        <time>2025-12-20T14:36:40.737Z</time>
      </trkpt>
      <trkpt lat="44.29396" lon="0.80332">
        <ele>189.1</ele>
        <time>2025-12-20T14:36:46.737Z</time>
      </trkpt>
      <trkpt lat="44.29404" lon="0.8033">
        <ele>187.2</ele>
        <time>2025-12-20T14:36:54.737Z</time>
      </trkpt>
      <trkpt lat="44.29415" lon="0.8033">
        <ele>184.4</ele>
        <time>2025-12-20T14:37:02.737Z</time>
      </trkpt>
      <trkpt lat="44.29427" lon="0.80326">
        <ele>182</ele>
        <time>2025-12-20T14:37:10.737Z</time>
      </trkpt>
      <trkpt lat="44.29439" lon="0.80329">
        <ele>180.4</ele>
        <time>2025-12-20T14:37:20.737Z</time>
      </trkpt>
      <trkpt lat="44.29454" lon="0.80329">
        <ele>178.5</ele>
        <time>2025-12-20T14:37:34.737Z</time>
      </trkpt>
      <trkpt lat="44.29462" lon="0.80327">
        <ele>177.4</ele>
        <time>2025-12-20T14:37:42.737Z</time>
      </trkpt>
      <trkpt lat="44.29467" lon="0.80329">
        <ele>177.1</ele>
        <time>2025-12-20T14:37:46.737Z</time>
      </trkpt>
      <trkpt lat="44.29472" lon="0.80328">
        <ele>176.5</ele>
        <time>2025-12-20T14:37:50.737Z</time>
      </trkpt>
      <trkpt lat="44.295" lon="0.80336">
        <ele>173.6</ele>
        <time>2025-12-20T14:38:12.737Z</time>
      </trkpt>
      <trkpt lat="44.29502" lon="0.80339">
        <ele>173.7</ele>
        <time>2025-12-20T14:38:14.737Z</time>
      </trkpt>
      <trkpt lat="44.2951" lon="0.80339">
        <ele>172.7</ele>
        <time>2025-12-20T14:38:22.737Z</time>
      </trkpt>
      <trkpt lat="44.29515" lon="0.80342">
        <ele>172.5</ele>
        <time>2025-12-20T14:38:26.737Z</time>
      </trkpt>
      <trkpt lat="44.29518" lon="0.80342">
        <ele>171.9</ele>
        <time>2025-12-20T14:38:28.737Z</time>
      </trkpt>
      <trkpt lat="44.29543" lon="0.80358">
        <ele>170.9</ele>
        <time>2025-12-20T14:38:52.737Z</time>
      </trkpt>
      <trkpt lat="44.29546" lon="0.80362">
        <ele>171.1</ele>
        <time>2025-12-20T14:38:56.737Z</time>
      </trkpt>
      <trkpt lat="44.2956" lon="0.80371">
        <ele>170.6</ele>
        <time>2025-12-20T14:39:08.737Z</time>
      </trkpt>
      <trkpt lat="44.29599" lon="0.80388">
        <ele>167.5</ele>
        <time>2025-12-20T14:39:44.737Z</time>
      </trkpt>
      <trkpt lat="44.2962" lon="0.80393">
        <ele>165.6</ele>
        <time>2025-12-20T14:40:04.737Z</time>
      </trkpt>
      <trkpt lat="44.29629" lon="0.80392">
        <ele>164</ele>
        <time>2025-12-20T14:40:12.737Z</time>
      </trkpt>
      <trkpt lat="44.29638" lon="0.80394">
        <ele>163.1</ele>
        <time>2025-12-20T14:40:20.737Z</time>
      </trkpt>
      <trkpt lat="44.29641" lon="0.80397">
        <ele>162.8</ele>
        <time>2025-12-20T14:40:24.737Z</time>
      </trkpt>
      <trkpt lat="44.29662" lon="0.80424">
        <ele>162.8</ele>
        <time>2025-12-20T14:40:48.737Z</time>
      </trkpt>
      <trkpt lat="44.29679" lon="0.80437">
        <ele>160.3</ele>
        <time>2025-12-20T14:41:32.737Z</time>
      </trkpt>
      <trkpt lat="44.29685" lon="0.80444">
        <ele>159.4</ele>
        <time>2025-12-20T14:41:48.737Z</time>
      </trkpt>
      <trkpt lat="44.29689" lon="0.80445">
        <ele>158.5</ele>
        <time>2025-12-20T14:41:52.737Z</time>
      </trkpt>
      <trkpt lat="44.29706" lon="0.80465">
        <ele>156.4</ele>
        <time>2025-12-20T14:42:12.737Z</time>
      </trkpt>
      <trkpt lat="44.29729" lon="0.80475">
        <ele>154.5</ele>
        <time>2025-12-20T14:42:52.737Z</time>
      </trkpt>
      <trkpt lat="44.29769" lon="0.80475">
        <ele>152.2</ele>
        <time>2025-12-20T14:43:24.737Z</time>
      </trkpt>
      <trkpt lat="44.29791" lon="0.80464">
        <ele>149.7</ele>
        <time>2025-12-20T14:43:44.737Z</time>
      </trkpt>
      <trkpt lat="44.29802" lon="0.80462">
        <ele>148.2</ele>
        <time>2025-12-20T14:43:52.737Z</time>
      </trkpt>
      <trkpt lat="44.29807" lon="0.80459">
        <ele>147.8</ele>
        <time>2025-12-20T14:43:56.737Z</time>
      </trkpt>
      <trkpt lat="44.29815" lon="0.80457">
        <ele>146.2</ele>
        <time>2025-12-20T14:44:08.737Z</time>
      </trkpt>
      <trkpt lat="44.29842" lon="0.80457">
        <ele>140.4</ele>
        <time>2025-12-20T14:44:36.737Z</time>
      </trkpt>
      <trkpt lat="44.2985" lon="0.8046">
        <ele>138.3</ele>
        <time>2025-12-20T14:44:46.737Z</time>
      </trkpt>
      <trkpt lat="44.29858" lon="0.80459">
        <ele>136.3</ele>
        <time>2025-12-20T14:44:54.737Z</time>
      </trkpt>
      <trkpt lat="44.29866" lon="0.80462">
        <ele>134.7</ele>
        <time>2025-12-20T14:45:02.737Z</time>
      </trkpt>
      <trkpt lat="44.299" lon="0.80462">
        <ele>129</ele>
        <time>2025-12-20T14:45:34.737Z</time>
      </trkpt>
      <trkpt lat="44.29909" lon="0.8046">
        <ele>127.7</ele>
        <time>2025-12-20T14:45:42.737Z</time>
      </trkpt>
      <trkpt lat="44.29944" lon="0.80459">
        <ele>123.6</ele>
        <time>2025-12-20T14:46:14.737Z</time>
      </trkpt>
      <trkpt lat="44.29957" lon="0.8046">
        <ele>123.2</ele>
        <time>2025-12-20T14:46:26.737Z</time>
      </trkpt>
      <trkpt lat="44.29966" lon="0.80459">
        <ele>123.1</ele>
        <time>2025-12-20T14:46:34.737Z</time>
      </trkpt>
      <trkpt lat="44.29973" lon="0.80453">
        <ele>123</ele>
        <time>2025-12-20T14:46:42.737Z</time>
      </trkpt>
      <trkpt lat="44.2997" lon="0.80441">
        <ele>123.2</ele>
        <time>2025-12-20T14:47:38.737Z</time>
      </trkpt>
      <trkpt lat="44.29963" lon="0.8043">
        <ele>123.7</ele>
        <time>2025-12-20T14:47:50.737Z</time>
      </trkpt>
      <trkpt lat="44.29961" lon="0.80424">
        <ele>123.8</ele>
        <time>2025-12-20T14:47:54.737Z</time>
      </trkpt>
      <trkpt lat="44.29963" lon="0.80407">
        <ele>124.2</ele>
        <time>2025-12-20T14:48:18.737Z</time>
      </trkpt>
      <trkpt lat="44.29978" lon="0.80359">
        <ele>128.9</ele>
        <time>2025-12-20T14:48:58.737Z</time>
      </trkpt>
      <trkpt lat="44.29986" lon="0.80328">
        <ele>132.9</ele>
        <time>2025-12-20T14:49:30.737Z</time>
      </trkpt>
      <trkpt lat="44.29998" lon="0.80305">
        <ele>135.9</ele>
        <time>2025-12-20T14:50:06.737Z</time>
      </trkpt>
      <trkpt lat="44.30006" lon="0.80296">
        <ele>137.5</ele>
        <time>2025-12-20T14:50:22.737Z</time>
      </trkpt>
      <trkpt lat="44.30017" lon="0.80289">
        <ele>139.4</ele>
        <time>2025-12-20T14:50:38.737Z</time>
      </trkpt>
      <trkpt lat="44.3003" lon="0.80286">
        <ele>141</ele>
        <time>2025-12-20T14:50:54.737Z</time>
      </trkpt>
      <trkpt lat="44.30058" lon="0.80284">
        <ele>143.3</ele>
        <time>2025-12-20T14:51:26.737Z</time>
      </trkpt>
      <trkpt lat="44.30086" lon="0.80271">
        <ele>147</ele>
        <time>2025-12-20T14:52:02.737Z</time>
      </trkpt>
      <trkpt lat="44.30103" lon="0.80253">
        <ele>150.2</ele>
        <time>2025-12-20T14:52:32.737Z</time>
      </trkpt>
      <trkpt lat="44.301" lon="0.80246">
        <ele>151</ele>
        <time>2025-12-20T14:52:40.737Z</time>
      </trkpt>
      <trkpt lat="44.301" lon="0.80241">
        <ele>151.5</ele>
        <time>2025-12-20T14:52:44.737Z</time>
      </trkpt>
      <trkpt lat="44.30103" lon="0.80237">
        <ele>151.9</ele>
        <time>2025-12-20T14:52:52.737Z</time>
      </trkpt>
      <trkpt lat="44.30106" lon="0.80237">
        <ele>151.9</ele>
        <time>2025-12-20T14:53:04.737Z</time>
      </trkpt>
      <trkpt lat="44.30117" lon="0.80232">
        <ele>151.9</ele>
        <time>2025-12-20T14:54:34.737Z</time>
      </trkpt>
      <trkpt lat="44.30126" lon="0.80211">
        <ele>154.7</ele>
        <time>2025-12-20T14:58:26.737Z</time>
      </trkpt>
      <trkpt lat="44.30147" lon="0.80192">
        <ele>158.2</ele>
        <time>2025-12-20T14:58:54.737Z</time>
      </trkpt>
      <trkpt lat="44.30149" lon="0.80188">
        <ele>159.3</ele>
        <time>2025-12-20T14:58:58.737Z</time>
      </trkpt>
      <trkpt lat="44.30162" lon="0.8018">
        <ele>160.8</ele>
        <time>2025-12-20T14:59:14.737Z</time>
      </trkpt>
      <trkpt lat="44.30165" lon="0.80175">
        <ele>161.8</ele>
        <time>2025-12-20T14:59:20.737Z</time>
      </trkpt>
      <trkpt lat="44.30174" lon="0.80172">
        <ele>162</ele>
        <time>2025-12-20T14:59:28.737Z</time>
      </trkpt>
      <trkpt lat="44.30178" lon="0.80169">
        <ele>162.7</ele>
        <time>2025-12-20T14:59:32.737Z</time>
      </trkpt>
      <trkpt lat="44.30184" lon="0.80158">
        <ele>165.4</ele>
        <time>2025-12-20T14:59:42.737Z</time>
      </trkpt>
      <trkpt lat="44.30192" lon="0.80152">
        <ele>166.2</ele>
        <time>2025-12-20T14:59:53.737Z</time>
      </trkpt>
      <trkpt lat="44.30197" lon="0.80143">
        <ele>167.5</ele>
        <time>2025-12-20T15:00:01.737Z</time>
      </trkpt>
      <trkpt lat="44.30203" lon="0.80139">
        <ele>167.7</ele>
        <time>2025-12-20T15:00:09.737Z</time>
      </trkpt>
      <trkpt lat="44.30213" lon="0.80125">
        <ele>170.1</ele>
        <time>2025-12-20T15:00:29.737Z</time>
      </trkpt>
      <trkpt lat="44.30217" lon="0.80123">
        <ele>169.5</ele>
        <time>2025-12-20T15:00:32.737Z</time>
      </trkpt>
      <trkpt lat="44.30219" lon="0.80115">
        <ele>171</ele>
        <time>2025-12-20T15:00:40.737Z</time>
      </trkpt>
      <trkpt lat="44.30224" lon="0.80109">
        <ele>171.2</ele>
        <time>2025-12-20T15:00:46.737Z</time>
      </trkpt>
      <trkpt lat="44.3023" lon="0.80107">
        <ele>170</ele>
        <time>2025-12-20T15:00:50.737Z</time>
      </trkpt>
      <trkpt lat="44.30232" lon="0.80103">
        <ele>170.5</ele>
        <time>2025-12-20T15:00:54.737Z</time>
      </trkpt>
      <trkpt lat="44.30237" lon="0.80101">
        <ele>169.6</ele>
        <time>2025-12-20T15:00:58.737Z</time>
      </trkpt>
      <trkpt lat="44.30237" lon="0.80093">
        <ele>171.2</ele>
        <time>2025-12-20T15:01:02.737Z</time>
      </trkpt>
      <trkpt lat="44.3024" lon="0.80088">
        <ele>171.5</ele>
        <time>2025-12-20T15:01:07.737Z</time>
      </trkpt>
      <trkpt lat="44.30249" lon="0.80079">
        <ele>170.4</ele>
        <time>2025-12-20T15:01:17.737Z</time>
      </trkpt>
      <trkpt lat="44.30251" lon="0.8007">
        <ele>172.1</ele>
        <time>2025-12-20T15:01:25.737Z</time>
      </trkpt>
      <trkpt lat="44.30257" lon="0.80061">
        <ele>172</ele>
        <time>2025-12-20T15:01:33.737Z</time>
      </trkpt>
      <trkpt lat="44.3027" lon="0.80055">
        <ele>169</ele>
        <time>2025-12-20T15:01:41.737Z</time>
      </trkpt>
      <trkpt lat="44.30277" lon="0.80038">
        <ele>172.7</ele>
        <time>2025-12-20T15:01:55.737Z</time>
      </trkpt>
      <trkpt lat="44.30287" lon="0.80024">
        <ele>175.4</ele>
        <time>2025-12-20T15:02:09.737Z</time>
      </trkpt>
      <trkpt lat="44.30303" lon="0.80012">
        <ele>176.7</ele>
        <time>2025-12-20T15:02:29.737Z</time>
      </trkpt>
      <trkpt lat="44.30317" lon="0.80008">
        <ele>176.1</ele>
        <time>2025-12-20T15:02:41.737Z</time>
      </trkpt>
      <trkpt lat="44.30329" lon="0.79992">
        <ele>180.5</ele>
        <time>2025-12-20T15:03:01.737Z</time>
      </trkpt>
      <trkpt lat="44.30331" lon="0.79992">
        <ele>180.1</ele>
        <time>2025-12-20T15:03:02.737Z</time>
      </trkpt>
      <trkpt lat="44.30342" lon="0.79984">
        <ele>181.9</ele>
        <time>2025-12-20T15:03:14.737Z</time>
      </trkpt>
      <trkpt lat="44.30345" lon="0.79983">
        <ele>181.6</ele>
        <time>2025-12-20T15:03:16.737Z</time>
      </trkpt>
      <trkpt lat="44.30352" lon="0.79978">
        <ele>182.4</ele>
        <time>2025-12-20T15:03:24.737Z</time>
      </trkpt>
      <trkpt lat="44.30361" lon="0.79964">
        <ele>184.8</ele>
        <time>2025-12-20T15:03:52.737Z</time>
      </trkpt>
      <trkpt lat="44.30365" lon="0.79963">
        <ele>184.7</ele>
        <time>2025-12-20T15:03:57.737Z</time>
      </trkpt>
      <trkpt lat="44.30366" lon="0.79961">
        <ele>185</ele>
        <time>2025-12-20T15:03:59.737Z</time>
      </trkpt>
      <trkpt lat="44.30388" lon="0.79958">
        <ele>184.1</ele>
        <time>2025-12-20T15:04:15.737Z</time>
      </trkpt>
      <trkpt lat="44.30399" lon="0.79959">
        <ele>183.4</ele>
        <time>2025-12-20T15:04:23.737Z</time>
      </trkpt>
      <trkpt lat="44.30416" lon="0.79957">
        <ele>182.6</ele>
        <time>2025-12-20T15:04:41.737Z</time>
      </trkpt>
      <trkpt lat="44.3042" lon="0.79958">
        <ele>182.4</ele>
        <time>2025-12-20T15:04:43.737Z</time>
      </trkpt>
      <trkpt lat="44.30431" lon="0.79954">
        <ele>182.1</ele>
        <time>2025-12-20T15:04:51.737Z</time>
      </trkpt>
      <trkpt lat="44.30439" lon="0.79949">
        <ele>182</ele>
        <time>2025-12-20T15:04:59.737Z</time>
      </trkpt>
      <trkpt lat="44.30446" lon="0.79943">
        <ele>181.9</ele>
        <time>2025-12-20T15:05:07.737Z</time>
      </trkpt>
      <trkpt lat="44.30446" lon="0.79932">
        <ele>182.3</ele>
        <time>2025-12-20T15:05:15.737Z</time>
      </trkpt>
      <trkpt lat="44.30438" lon="0.79913">
        <ele>183.8</ele>
        <time>2025-12-20T15:05:31.737Z</time>
      </trkpt>
      <trkpt lat="44.30428" lon="0.79901">
        <ele>184.7</ele>
        <time>2025-12-20T15:05:43.737Z</time>
      </trkpt>
      <trkpt lat="44.3042" lon="0.79896">
        <ele>185.1</ele>
        <time>2025-12-20T15:05:51.737Z</time>
      </trkpt>
      <trkpt lat="44.30406" lon="0.79898">
        <ele>185.9</ele>
        <time>2025-12-20T15:06:27.737Z</time>
      </trkpt>
      <trkpt lat="44.30365" lon="0.79908">
        <ele>188.8</ele>
        <time>2025-12-20T15:07:07.737Z</time>
      </trkpt>
      <trkpt lat="44.30352" lon="0.79906">
        <ele>190</ele>
        <time>2025-12-20T15:07:35.737Z</time>
      </trkpt>
      <trkpt lat="44.30332" lon="0.799">
        <ele>191.8</ele>
        <time>2025-12-20T15:07:55.737Z</time>
      </trkpt>
      <trkpt lat="44.30296" lon="0.79884">
        <ele>196.8</ele>
        <time>2025-12-20T15:08:27.737Z</time>
      </trkpt>
      <trkpt lat="44.30286" lon="0.79881">
        <ele>198.3</ele>
        <time>2025-12-20T15:08:32.737Z</time>
      </trkpt>
      <trkpt lat="44.30282" lon="0.79883">
        <ele>199.3</ele>
        <time>2025-12-20T15:08:33.737Z</time>
      </trkpt>
      <trkpt lat="44.30276" lon="0.79882">
        <ele>200.5</ele>
        <time>2025-12-20T15:08:35.737Z</time>
      </trkpt>
      <trkpt lat="44.30262" lon="0.7987">
        <ele>201.9</ele>
        <time>2025-12-20T15:08:44.737Z</time>
      </trkpt>
      <trkpt lat="44.30256" lon="0.79855">
        <ele>201.9</ele>
        <time>2025-12-20T15:09:00.737Z</time>
      </trkpt>
      <trkpt lat="44.30251" lon="0.79851">
        <ele>202.6</ele>
        <time>2025-12-20T15:09:03.737Z</time>
      </trkpt>
      <trkpt lat="44.30237" lon="0.79825">
        <ele>203.4</ele>
        <time>2025-12-20T15:09:29.737Z</time>
      </trkpt>
      <trkpt lat="44.30221" lon="0.79776">
        <ele>206.3</ele>
        <time>2025-12-20T15:10:09.737Z</time>
      </trkpt>
      <trkpt lat="44.30219" lon="0.79766">
        <ele>206.9</ele>
        <time>2025-12-20T15:10:20.737Z</time>
      </trkpt>
      <trkpt lat="44.30215" lon="0.79756">
        <ele>207.9</ele>
        <time>2025-12-20T15:10:28.737Z</time>
      </trkpt>
      <trkpt lat="44.30178" lon="0.79617">
        <ele>211.9</ele>
        <time>2025-12-20T15:12:20.737Z</time>
      </trkpt>
      <trkpt lat="44.30169" lon="0.79577">
        <ele>210.1</ele>
        <time>2025-12-20T15:12:48.737Z</time>
      </trkpt>
      <trkpt lat="44.30153" lon="0.79529">
        <ele>205.9</ele>
        <time>2025-12-20T15:13:24.737Z</time>
      </trkpt>
      <trkpt lat="44.30147" lon="0.79506">
        <ele>205.3</ele>
        <time>2025-12-20T15:13:42.737Z</time>
      </trkpt>
      <trkpt lat="44.30137" lon="0.79483">
        <ele>204.3</ele>
        <time>2025-12-20T15:14:06.737Z</time>
      </trkpt>
      <trkpt lat="44.30119" lon="0.79454">
        <ele>203</ele>
        <time>2025-12-20T15:14:38.737Z</time>
      </trkpt>
      <trkpt lat="44.30098" lon="0.79436">
        <ele>202.7</ele>
        <time>2025-12-20T15:15:02.737Z</time>
      </trkpt>
      <trkpt lat="44.30046" lon="0.79405">
        <ele>201.2</ele>
        <time>2025-12-20T15:15:58.737Z</time>
      </trkpt>
      <trkpt lat="44.30039" lon="0.79399">
        <ele>201</ele>
        <time>2025-12-20T15:16:06.737Z</time>
      </trkpt>
      <trkpt lat="44.30033" lon="0.79398">
        <ele>200.7</ele>
        <time>2025-12-20T15:16:10.737Z</time>
      </trkpt>
      <trkpt lat="44.29998" lon="0.79377">
        <ele>200.1</ele>
        <time>2025-12-20T15:16:45.737Z</time>
      </trkpt>
      <trkpt lat="44.29978" lon="0.7936">
        <ele>200.8</ele>
        <time>2025-12-20T15:17:33.737Z</time>
      </trkpt>
      <trkpt lat="44.29967" lon="0.79341">
        <ele>200.8</ele>
        <time>2025-12-20T15:17:49.737Z</time>
      </trkpt>
      <trkpt lat="44.29954" lon="0.793">
        <ele>200.6</ele>
        <time>2025-12-20T15:18:21.737Z</time>
      </trkpt>
      <trkpt lat="44.29944" lon="0.79281">
        <ele>200.3</ele>
        <time>2025-12-20T15:18:37.737Z</time>
      </trkpt>
      <trkpt lat="44.29921" lon="0.7926">
        <ele>200.4</ele>
        <time>2025-12-20T15:19:05.737Z</time>
      </trkpt>
      <trkpt lat="44.29909" lon="0.79254">
        <ele>200.8</ele>
        <time>2025-12-20T15:19:17.737Z</time>
      </trkpt>
      <trkpt lat="44.299" lon="0.79254">
        <ele>201.4</ele>
        <time>2025-12-20T15:19:25.737Z</time>
      </trkpt>
      <trkpt lat="44.29865" lon="0.79248">
        <ele>202.9</ele>
        <time>2025-12-20T15:19:57.737Z</time>
      </trkpt>
      <trkpt lat="44.29856" lon="0.79249">
        <ele>203.2</ele>
        <time>2025-12-20T15:20:05.737Z</time>
      </trkpt>
      <trkpt lat="44.29835" lon="0.79243">
        <ele>204.2</ele>
        <time>2025-12-20T15:20:25.737Z</time>
      </trkpt>
      <trkpt lat="44.29789" lon="0.79205">
        <ele>205.4</ele>
        <time>2025-12-20T15:21:13.737Z</time>
      </trkpt>
      <trkpt lat="44.29775" lon="0.79197">
        <ele>205.8</ele>
        <time>2025-12-20T15:21:29.737Z</time>
      </trkpt>
      <trkpt lat="44.29771" lon="0.79194">
        <ele>206</ele>
        <time>2025-12-20T15:21:33.737Z</time>
      </trkpt>
      <trkpt lat="44.2977" lon="0.79187">
        <ele>206.3</ele>
        <time>2025-12-20T15:21:37.737Z</time>
      </trkpt>
      <trkpt lat="44.2979" lon="0.79152">
        <ele>207.5</ele>
        <time>2025-12-20T15:22:05.737Z</time>
      </trkpt>
      <trkpt lat="44.29803" lon="0.79123">
        <ele>208</ele>
        <time>2025-12-20T15:22:27.737Z</time>
      </trkpt>
      <trkpt lat="44.29811" lon="0.79115">
        <ele>208</ele>
        <time>2025-12-20T15:22:55.737Z</time>
      </trkpt>
      <trkpt lat="44.29845" lon="0.79044">
        <ele>207.8</ele>
        <time>2025-12-20T15:23:51.737Z</time>
      </trkpt>
      <trkpt lat="44.29881" lon="0.78977">
        <ele>207.3</ele>
        <time>2025-12-20T15:24:43.737Z</time>
      </trkpt>
      <trkpt lat="44.29926" lon="0.78883">
        <ele>206.2</ele>
        <time>2025-12-20T15:25:55.737Z</time>
      </trkpt>
      <trkpt lat="44.29944" lon="0.78855">
        <ele>205</ele>
        <time>2025-12-20T15:26:19.737Z</time>
      </trkpt>
      <trkpt lat="44.29962" lon="0.7882">
        <ele>203.2</ele>
        <time>2025-12-20T15:27:19.737Z</time>
      </trkpt>
      <trkpt lat="44.29965" lon="0.78817">
        <ele>202.9</ele>
        <time>2025-12-20T15:27:35.737Z</time>
      </trkpt>
      <trkpt lat="44.29966" lon="0.78811">
        <ele>202.6</ele>
        <time>2025-12-20T15:27:57.737Z</time>
      </trkpt>
      <trkpt lat="44.29962" lon="0.78807">
        <ele>202.8</ele>
        <time>2025-12-20T15:28:11.737Z</time>
      </trkpt>
      <trkpt lat="44.29943" lon="0.78776">
        <ele>202.9</ele>
        <time>2025-12-20T15:30:01.737Z</time>
      </trkpt>
      <trkpt lat="44.29944" lon="0.78758">
        <ele>202.3</ele>
        <time>2025-12-20T15:31:01.737Z</time>
      </trkpt>
    </trkseg>
  </trk>
</gpx>